sensor_id;sensor_type;location;lat;lon;timestamp;P1;durP1;ratioP1;P2;durP2;ratioP2
72109;SDS011;59983;52.010;5.420;2023-03-12T00:01:56;13.73;;;12.50;;
72109;SDS011;59983;52.010;5.420;2023-03-12T00:04:24;12.07;;;10.95;;
72109;SDS011;59983;52.010;5.420;2023-03-12T00:06:51;11.07;;;10.13;;
72109;SDS011;59983;52.010;5.420;2023-03-12T00:09:17;12.63;;;11.38;;
72109;SDS011;59983;52.010;5.420;2023-03-12T00:11:44;12.32;;;11.50;;
72109;SDS011;59983;52.010;5.420;2023-03-12T00:14:11;11.63;;;10.65;;
72109;SDS011;59983;52.010;5.420;2023-03-12T00:16:37;12.77;;;11.50;;
72109;SDS011;59983;52.010;5.420;2023-03-12T00:19:04;11.73;;;10.67;;
72109;SDS011;59983;52.010;5.420;2023-03-12T00:21:30;12.02;;;10.82;;
72109;SDS011;59983;52.010;5.420;2023-03-12T00:23:57;11.68;;;10.88;;
72109;SDS011;59983;52.010;5.420;2023-03-12T00:26:24;11.48;;;10.48;;
72109;SDS011;59983;52.010;5.420;2023-03-12T00:28:50;12.02;;;10.80;;
72109;SDS011;59983;52.010;5.420;2023-03-12T00:33:45;10.18;;;9.32;;
72109;SDS011;59983;52.010;5.420;2023-03-12T00:36:16;12.20;;;11.00;;
72109;SDS011;59983;52.010;5.420;2023-03-12T00:38:43;10.38;;;9.50;;
72109;SDS011;59983;52.010;5.420;2023-03-12T00:41:10;11.88;;;10.88;;
72109;SDS011;59983;52.010;5.420;2023-03-12T00:43:37;9.90;;;8.90;;
72109;SDS011;59983;52.010;5.420;2023-03-12T00:46:03;11.30;;;10.13;;
72109;SDS011;59983;52.010;5.420;2023-03-12T00:48:30;11.43;;;10.48;;
72109;SDS011;59983;52.010;5.420;2023-03-12T00:50:57;11.35;;;10.45;;
72109;SDS011;59983;52.010;5.420;2023-03-12T00:53:23;12.88;;;10.40;;
72109;SDS011;59983;52.010;5.420;2023-03-12T00:55:50;11.20;;;10.13;;
72109;SDS011;59983;52.010;5.420;2023-03-12T00:58:16;10.13;;;9.27;;
72109;SDS011;59983;52.010;5.420;2023-03-12T01:00:43;10.32;;;9.63;;
72109;SDS011;59983;52.010;5.420;2023-03-12T01:03:10;9.75;;;9.15;;
72109;SDS011;59983;52.010;5.420;2023-03-12T01:05:36;11.65;;;10.48;;
72109;SDS011;59983;52.010;5.420;2023-03-12T01:08:09;11.50;;;9.87;;
72109;SDS011;59983;52.010;5.420;2023-03-12T01:10:39;9.65;;;9.05;;
72109;SDS011;59983;52.010;5.420;2023-03-12T01:13:07;12.23;;;10.60;;
72109;SDS011;59983;52.010;5.420;2023-03-12T01:15:34;9.88;;;9.27;;
72109;SDS011;59983;52.010;5.420;2023-03-12T01:18:00;10.35;;;9.63;;
72109;SDS011;59983;52.010;5.420;2023-03-12T01:20:27;9.47;;;8.73;;
72109;SDS011;59983;52.010;5.420;2023-03-12T01:22:53;9.68;;;8.82;;
72109;SDS011;59983;52.010;5.420;2023-03-12T01:25:20;10.98;;;10.27;;
72109;SDS011;59983;52.010;5.420;2023-03-12T01:27:46;10.00;;;9.02;;
72109;SDS011;59983;52.010;5.420;2023-03-12T01:30:13;9.82;;;9.23;;
72109;SDS011;59983;52.010;5.420;2023-03-12T01:32:40;10.67;;;9.70;;
72109;SDS011;59983;52.010;5.420;2023-03-12T01:35:06;9.38;;;8.63;;
72109;SDS011;59983;52.010;5.420;2023-03-12T01:37:33;10.23;;;9.15;;
72109;SDS011;59983;52.010;5.420;2023-03-12T01:40:00;10.73;;;9.77;;
72109;SDS011;59983;52.010;5.420;2023-03-12T01:42:26;10.63;;;9.77;;
72109;SDS011;59983;52.010;5.420;2023-03-12T01:44:57;9.67;;;9.03;;
72109;SDS011;59983;52.010;5.420;2023-03-12T01:47:26;10.80;;;9.73;;
72109;SDS011;59983;52.010;5.420;2023-03-12T01:49:57;10.07;;;9.13;;
72109;SDS011;59983;52.010;5.420;2023-03-12T01:52:30;8.60;;;8.00;;
72109;SDS011;59983;52.010;5.420;2023-03-12T01:55:05;10.65;;;9.77;;
72109;SDS011;59983;52.010;5.420;2023-03-12T02:00:19;10.13;;;9.35;;
72109;SDS011;59983;52.010;5.420;2023-03-12T02:02:48;9.98;;;9.18;;
72109;SDS011;59983;52.010;5.420;2023-03-12T02:05:24;10.00;;;9.40;;
72109;SDS011;59983;52.010;5.420;2023-03-12T02:07:53;10.20;;;9.32;;
72109;SDS011;59983;52.010;5.420;2023-03-12T02:10:20;10.77;;;9.83;;
72109;SDS011;59983;52.010;5.420;2023-03-12T02:12:47;9.88;;;9.05;;
72109;SDS011;59983;52.010;5.420;2023-03-12T02:15:13;10.18;;;9.13;;
72109;SDS011;59983;52.010;5.420;2023-03-12T02:17:40;8.77;;;8.25;;
72109;SDS011;59983;52.010;5.420;2023-03-12T02:22:50;9.30;;;8.57;;
72109;SDS011;59983;52.010;5.420;2023-03-12T02:27:56;9.65;;;8.95;;
72109;SDS011;59983;52.010;5.420;2023-03-12T02:30:26;9.80;;;8.90;;
72109;SDS011;59983;52.010;5.420;2023-03-12T02:32:55;10.25;;;9.10;;
72109;SDS011;59983;52.010;5.420;2023-03-12T02:35:23;10.83;;;9.00;;
72109;SDS011;59983;52.010;5.420;2023-03-12T02:37:50;11.32;;;8.43;;
72109;SDS011;59983;52.010;5.420;2023-03-12T02:42:51;9.65;;;8.45;;
72109;SDS011;59983;52.010;5.420;2023-03-12T02:45:19;11.57;;;10.52;;
72109;SDS011;59983;52.010;5.420;2023-03-12T02:47:46;8.17;;;7.63;;
72109;SDS011;59983;52.010;5.420;2023-03-12T02:50:13;9.10;;;8.40;;
72109;SDS011;59983;52.010;5.420;2023-03-12T02:52:39;8.73;;;8.00;;
72109;SDS011;59983;52.010;5.420;2023-03-12T02:55:06;9.32;;;8.35;;
72109;SDS011;59983;52.010;5.420;2023-03-12T02:57:33;8.00;;;7.60;;
72109;SDS011;59983;52.010;5.420;2023-03-12T03:00:04;9.50;;;8.87;;
72109;SDS011;59983;52.010;5.420;2023-03-12T03:02:32;9.20;;;8.52;;
72109;SDS011;59983;52.010;5.420;2023-03-12T03:04:58;9.70;;;8.90;;
72109;SDS011;59983;52.010;5.420;2023-03-12T03:07:25;9.35;;;8.55;;
72109;SDS011;59983;52.010;5.420;2023-03-12T03:09:51;8.60;;;8.00;;
72109;SDS011;59983;52.010;5.420;2023-03-12T03:12:17;8.07;;;7.40;;
72109;SDS011;59983;52.010;5.420;2023-03-12T03:14:44;9.02;;;8.43;;
72109;SDS011;59983;52.010;5.420;2023-03-12T03:17:11;8.98;;;8.48;;
72109;SDS011;59983;52.010;5.420;2023-03-12T03:19:37;8.88;;;8.13;;
72109;SDS011;59983;52.010;5.420;2023-03-12T03:22:04;9.40;;;8.80;;
72109;SDS011;59983;52.010;5.420;2023-03-12T03:24:30;12.13;;;9.93;;
72109;SDS011;59983;52.010;5.420;2023-03-12T03:26:57;9.25;;;8.65;;
72109;SDS011;59983;52.010;5.420;2023-03-12T03:29:23;9.82;;;9.02;;
72109;SDS011;59983;52.010;5.420;2023-03-12T03:31:50;9.00;;;8.20;;
72109;SDS011;59983;52.010;5.420;2023-03-12T03:34:16;9.30;;;8.70;;
72109;SDS011;59983;52.010;5.420;2023-03-12T03:36:43;7.73;;;7.23;;
72109;SDS011;59983;52.010;5.420;2023-03-12T03:39:09;8.02;;;7.43;;
72109;SDS011;59983;52.010;5.420;2023-03-12T03:41:36;9.40;;;8.50;;
72109;SDS011;59983;52.010;5.420;2023-03-12T03:44:02;8.98;;;8.23;;
72109;SDS011;59983;52.010;5.420;2023-03-12T03:46:30;9.63;;;8.75;;
72109;SDS011;59983;52.010;5.420;2023-03-12T03:48:56;8.63;;;8.07;;
72109;SDS011;59983;52.010;5.420;2023-03-12T03:51:23;9.68;;;8.75;;
72109;SDS011;59983;52.010;5.420;2023-03-12T03:53:49;11.73;;;9.23;;
72109;SDS011;59983;52.010;5.420;2023-03-12T03:56:16;9.80;;;9.00;;
72109;SDS011;59983;52.010;5.420;2023-03-12T03:58:43;8.27;;;7.75;;
72109;SDS011;59983;52.010;5.420;2023-03-12T04:01:13;9.47;;;8.63;;
72109;SDS011;59983;52.010;5.420;2023-03-12T04:03:40;8.43;;;7.85;;
72109;SDS011;59983;52.010;5.420;2023-03-12T04:06:07;8.90;;;8.30;;
72109;SDS011;59983;52.010;5.420;2023-03-12T04:08:34;8.75;;;8.15;;
72109;SDS011;59983;52.010;5.420;2023-03-12T04:11:09;9.02;;;8.30;;
72109;SDS011;59983;52.010;5.420;2023-03-12T04:13:46;9.37;;;8.67;;
72109;SDS011;59983;52.010;5.420;2023-03-12T04:16:13;9.07;;;8.38;;
72109;SDS011;59983;52.010;5.420;2023-03-12T04:18:40;10.77;;;9.82;;
72109;SDS011;59983;52.010;5.420;2023-03-12T04:21:08;9.18;;;8.27;;
72109;SDS011;59983;52.010;5.420;2023-03-12T04:23:36;10.43;;;9.73;;
72109;SDS011;59983;52.010;5.420;2023-03-12T04:26:03;9.10;;;8.53;;
72109;SDS011;59983;52.010;5.420;2023-03-12T04:28:31;8.25;;;7.75;;
72109;SDS011;59983;52.010;5.420;2023-03-12T04:30:58;9.60;;;8.77;;
72109;SDS011;59983;52.010;5.420;2023-03-12T04:33:30;9.40;;;8.52;;
72109;SDS011;59983;52.010;5.420;2023-03-12T04:35:59;9.50;;;8.73;;
72109;SDS011;59983;52.010;5.420;2023-03-12T04:38:26;9.43;;;8.63;;
72109;SDS011;59983;52.010;5.420;2023-03-12T04:41:02;9.93;;;9.10;;
72109;SDS011;59983;52.010;5.420;2023-03-12T04:43:31;10.43;;;9.48;;
72109;SDS011;59983;52.010;5.420;2023-03-12T04:45:58;11.15;;;9.88;;
72109;SDS011;59983;52.010;5.420;2023-03-12T04:48:26;11.68;;;10.85;;
72109;SDS011;59983;52.010;5.420;2023-03-12T04:50:52;9.60;;;8.90;;
72109;SDS011;59983;52.010;5.420;2023-03-12T04:53:20;10.07;;;9.27;;
72109;SDS011;59983;52.010;5.420;2023-03-12T04:55:47;10.10;;;9.23;;
72109;SDS011;59983;52.010;5.420;2023-03-12T04:58:13;10.20;;;9.60;;
72109;SDS011;59983;52.010;5.420;2023-03-12T05:00:40;9.85;;;9.15;;
72109;SDS011;59983;52.010;5.420;2023-03-12T05:03:07;8.93;;;8.43;;
72109;SDS011;59983;52.010;5.420;2023-03-12T05:05:34;10.85;;;9.98;;
72109;SDS011;59983;52.010;5.420;2023-03-12T05:08:01;11.15;;;10.25;;
72109;SDS011;59983;52.010;5.420;2023-03-12T05:10:28;9.80;;;9.25;;
72109;SDS011;59983;52.010;5.420;2023-03-12T05:12:55;11.00;;;9.90;;
72109;SDS011;59983;52.010;5.420;2023-03-12T05:15:22;10.23;;;9.53;;
72109;SDS011;59983;52.010;5.420;2023-03-12T05:17:49;9.07;;;8.30;;
72109;SDS011;59983;52.010;5.420;2023-03-12T05:20:15;10.20;;;9.40;;
72109;SDS011;59983;52.010;5.420;2023-03-12T05:22:45;9.85;;;8.95;;
72109;SDS011;59983;52.010;5.420;2023-03-12T05:25:12;10.90;;;9.93;;
72109;SDS011;59983;52.010;5.420;2023-03-12T05:27:38;9.77;;;8.83;;
72109;SDS011;59983;52.010;5.420;2023-03-12T05:30:05;9.48;;;8.70;;
72109;SDS011;59983;52.010;5.420;2023-03-12T05:32:32;10.32;;;9.38;;
72109;SDS011;59983;52.010;5.420;2023-03-12T05:34:59;10.13;;;9.43;;
72109;SDS011;59983;52.010;5.420;2023-03-12T05:37:27;10.13;;;9.15;;
72109;SDS011;59983;52.010;5.420;2023-03-12T05:39:53;8.80;;;8.03;;
72109;SDS011;59983;52.010;5.420;2023-03-12T05:42:20;9.23;;;8.48;;
72109;SDS011;59983;52.010;5.420;2023-03-12T05:44:46;10.68;;;10.05;;
72109;SDS011;59983;52.010;5.420;2023-03-12T05:47:13;9.82;;;8.90;;
72109;SDS011;59983;52.010;5.420;2023-03-12T05:49:39;10.23;;;9.43;;
72109;SDS011;59983;52.010;5.420;2023-03-12T05:52:06;10.40;;;8.43;;
72109;SDS011;59983;52.010;5.420;2023-03-12T05:54:32;9.30;;;8.48;;
72109;SDS011;59983;52.010;5.420;2023-03-12T05:56:59;10.25;;;9.65;;
72109;SDS011;59983;52.010;5.420;2023-03-12T05:59:25;9.38;;;8.70;;
72109;SDS011;59983;52.010;5.420;2023-03-12T06:01:52;9.25;;;8.43;;
72109;SDS011;59983;52.010;5.420;2023-03-12T06:04:19;10.13;;;9.40;;
72109;SDS011;59983;52.010;5.420;2023-03-12T06:06:45;10.00;;;9.13;;
72109;SDS011;59983;52.010;5.420;2023-03-12T06:09:12;10.60;;;10.00;;
72109;SDS011;59983;52.010;5.420;2023-03-12T06:11:38;10.63;;;9.77;;
72109;SDS011;59983;52.010;5.420;2023-03-12T06:14:05;10.32;;;9.73;;
72109;SDS011;59983;52.010;5.420;2023-03-12T06:16:31;9.93;;;9.20;;
72109;SDS011;59983;52.010;5.420;2023-03-12T06:18:59;9.88;;;8.85;;
72109;SDS011;59983;52.010;5.420;2023-03-12T06:21:28;11.23;;;10.10;;
72109;SDS011;59983;52.010;5.420;2023-03-12T06:24:00;10.73;;;9.57;;
72109;SDS011;59983;52.010;5.420;2023-03-12T06:26:27;11.27;;;10.13;;
72109;SDS011;59983;52.010;5.420;2023-03-12T06:28:53;8.43;;;7.83;;
72109;SDS011;59983;52.010;5.420;2023-03-12T06:31:20;9.85;;;9.00;;
72109;SDS011;59983;52.010;5.420;2023-03-12T06:33:47;10.77;;;9.85;;
72109;SDS011;59983;52.010;5.420;2023-03-12T06:36:14;10.65;;;9.63;;
72109;SDS011;59983;52.010;5.420;2023-03-12T06:38:41;9.93;;;9.05;;
72109;SDS011;59983;52.010;5.420;2023-03-12T06:41:09;12.13;;;10.63;;
72109;SDS011;59983;52.010;5.420;2023-03-12T06:43:37;11.15;;;10.10;;
72109;SDS011;59983;52.010;5.420;2023-03-12T06:46:05;14.65;;;10.75;;
72109;SDS011;59983;52.010;5.420;2023-03-12T06:48:33;10.95;;;10.13;;
72109;SDS011;59983;52.010;5.420;2023-03-12T06:51:10;11.45;;;10.43;;
72109;SDS011;59983;52.010;5.420;2023-03-12T06:53:38;17.10;;;10.77;;
72109;SDS011;59983;52.010;5.420;2023-03-12T06:56:07;11.40;;;10.35;;
72109;SDS011;59983;52.010;5.420;2023-03-12T06:58:34;10.82;;;9.75;;
72109;SDS011;59983;52.010;5.420;2023-03-12T07:01:00;10.20;;;9.52;;
72109;SDS011;59983;52.010;5.420;2023-03-12T07:03:27;12.15;;;10.07;;
72109;SDS011;59983;52.010;5.420;2023-03-12T07:05:54;11.13;;;9.90;;
72109;SDS011;59983;52.010;5.420;2023-03-12T07:08:22;9.93;;;8.95;;
72109;SDS011;59983;52.010;5.420;2023-03-12T07:10:49;11.30;;;10.30;;
72109;SDS011;59983;52.010;5.420;2023-03-12T07:13:16;10.73;;;9.85;;
72109;SDS011;59983;52.010;5.420;2023-03-12T07:15:42;11.73;;;10.73;;
72109;SDS011;59983;52.010;5.420;2023-03-12T07:18:11;11.07;;;10.37;;
72109;SDS011;59983;52.010;5.420;2023-03-12T07:20:39;10.35;;;9.27;;
72109;SDS011;59983;52.010;5.420;2023-03-12T07:23:07;11.85;;;10.93;;
72109;SDS011;59983;52.010;5.420;2023-03-12T07:25:34;10.93;;;9.38;;
72109;SDS011;59983;52.010;5.420;2023-03-12T07:28:02;10.93;;;10.00;;
72109;SDS011;59983;52.010;5.420;2023-03-12T07:30:29;10.27;;;9.60;;
72109;SDS011;59983;52.010;5.420;2023-03-12T07:33:00;10.60;;;9.57;;
72109;SDS011;59983;52.010;5.420;2023-03-12T07:35:33;11.35;;;10.75;;
72109;SDS011;59983;52.010;5.420;2023-03-12T07:38:00;10.45;;;9.80;;
72109;SDS011;59983;52.010;5.420;2023-03-12T07:40:27;11.98;;;10.95;;
72109;SDS011;59983;52.010;5.420;2023-03-12T07:42:54;11.90;;;10.60;;
72109;SDS011;59983;52.010;5.420;2023-03-12T07:45:21;10.35;;;9.40;;
72109;SDS011;59983;52.010;5.420;2023-03-12T07:47:48;11.30;;;10.50;;
72109;SDS011;59983;52.010;5.420;2023-03-12T07:50:15;12.80;;;12.00;;
72109;SDS011;59983;52.010;5.420;2023-03-12T07:52:43;12.35;;;11.23;;
72109;SDS011;59983;52.010;5.420;2023-03-12T07:55:10;13.80;;;10.47;;
72109;SDS011;59983;52.010;5.420;2023-03-12T07:57:37;12.65;;;11.55;;
72109;SDS011;59983;52.010;5.420;2023-03-12T08:00:04;12.07;;;10.95;;
72109;SDS011;59983;52.010;5.420;2023-03-12T08:02:33;14.50;;;13.40;;
72109;SDS011;59983;52.010;5.420;2023-03-12T08:05:00;12.13;;;11.27;;
72109;SDS011;59983;52.010;5.420;2023-03-12T08:07:27;13.50;;;10.60;;
72109;SDS011;59983;52.010;5.420;2023-03-12T08:09:58;13.45;;;10.65;;
72109;SDS011;59983;52.010;5.420;2023-03-12T08:12:25;12.93;;;11.75;;
72109;SDS011;59983;52.010;5.420;2023-03-12T08:14:52;12.48;;;11.48;;
72109;SDS011;59983;52.010;5.420;2023-03-12T08:17:19;11.95;;;11.20;;
72109;SDS011;59983;52.010;5.420;2023-03-12T08:19:45;11.47;;;10.50;;
72109;SDS011;59983;52.010;5.420;2023-03-12T08:22:12;11.70;;;10.77;;
72109;SDS011;59983;52.010;5.420;2023-03-12T08:24:39;13.90;;;11.32;;
72109;SDS011;59983;52.010;5.420;2023-03-12T08:27:05;11.35;;;10.55;;
72109;SDS011;59983;52.010;5.420;2023-03-12T08:29:32;10.00;;;9.30;;
72109;SDS011;59983;52.010;5.420;2023-03-12T08:31:58;12.77;;;11.47;;
72109;SDS011;59983;52.010;5.420;2023-03-12T08:34:31;12.15;;;11.15;;
72109;SDS011;59983;52.010;5.420;2023-03-12T08:37:00;15.35;;;11.93;;
72109;SDS011;59983;52.010;5.420;2023-03-12T08:39:28;11.20;;;10.32;;
72109;SDS011;59983;52.010;5.420;2023-03-12T08:41:55;9.98;;;9.20;;
72109;SDS011;59983;52.010;5.420;2023-03-12T08:44:21;13.10;;;12.07;;
72109;SDS011;59983;52.010;5.420;2023-03-12T08:46:49;12.00;;;11.10;;
72109;SDS011;59983;52.010;5.420;2023-03-12T08:49:16;11.15;;;10.32;;
72109;SDS011;59983;52.010;5.420;2023-03-12T08:51:43;11.98;;;11.18;;
72109;SDS011;59983;52.010;5.420;2023-03-12T08:54:09;13.82;;;12.77;;
72109;SDS011;59983;52.010;5.420;2023-03-12T08:56:36;12.03;;;11.03;;
72109;SDS011;59983;52.010;5.420;2023-03-12T08:59:07;13.23;;;12.23;;
72109;SDS011;59983;52.010;5.420;2023-03-12T09:01:37;13.23;;;12.23;;
72109;SDS011;59983;52.010;5.420;2023-03-12T09:04:03;15.35;;;13.98;;
72109;SDS011;59983;52.010;5.420;2023-03-12T09:06:31;13.48;;;12.32;;
72109;SDS011;59983;52.010;5.420;2023-03-12T09:08:59;13.67;;;12.20;;
72109;SDS011;59983;52.010;5.420;2023-03-12T09:11:30;13.68;;;12.50;;
72109;SDS011;59983;52.010;5.420;2023-03-12T09:13:58;14.15;;;12.93;;
72109;SDS011;59983;52.010;5.420;2023-03-12T09:16:45;14.00;;;12.68;;
72109;SDS011;59983;52.010;5.420;2023-03-12T09:19:12;15.90;;;14.40;;
72109;SDS011;59983;52.010;5.420;2023-03-12T09:21:38;13.63;;;12.53;;
72109;SDS011;59983;52.010;5.420;2023-03-12T09:24:05;17.27;;;15.48;;
72109;SDS011;59983;52.010;5.420;2023-03-12T09:26:32;19.10;;;15.40;;
72109;SDS011;59983;52.010;5.420;2023-03-12T09:28:59;18.00;;;16.08;;
72109;SDS011;59983;52.010;5.420;2023-03-12T09:31:26;19.17;;;15.30;;
72109;SDS011;59983;52.010;5.420;2023-03-12T09:33:52;20.17;;;15.87;;
72109;SDS011;59983;52.010;5.420;2023-03-12T09:36:19;15.13;;;13.70;;
72109;SDS011;59983;52.010;5.420;2023-03-12T09:38:45;15.82;;;14.52;;
72109;SDS011;59983;52.010;5.420;2023-03-12T09:41:19;17.42;;;14.98;;
72109;SDS011;59983;52.010;5.420;2023-03-12T09:46:26;18.63;;;14.57;;
72109;SDS011;59983;52.010;5.420;2023-03-12T09:48:58;20.23;;;16.40;;
72109;SDS011;59983;52.010;5.420;2023-03-12T09:51:35;16.25;;;14.43;;
72109;SDS011;59983;52.010;5.420;2023-03-12T09:54:07;16.27;;;14.63;;
72109;SDS011;59983;52.010;5.420;2023-03-12T09:56:57;23.00;;;16.67;;
72109;SDS011;59983;52.010;5.420;2023-03-12T09:59:28;19.93;;;15.73;;
72109;SDS011;59983;52.010;5.420;2023-03-12T10:01:58;22.35;;;17.88;;
72109;SDS011;59983;52.010;5.420;2023-03-12T10:07:33;26.27;;;18.40;;
72109;SDS011;59983;52.010;5.420;2023-03-12T10:12:57;22.93;;;19.03;;
72109;SDS011;59983;52.010;5.420;2023-03-12T10:18:35;22.15;;;18.88;;
72109;SDS011;59983;52.010;5.420;2023-03-12T10:24:22;29.83;;;20.38;;
72109;SDS011;59983;52.010;5.420;2023-03-12T10:27:11;24.53;;;17.20;;
72109;SDS011;59983;52.010;5.420;2023-03-12T10:29:41;21.33;;;18.17;;
72109;SDS011;59983;52.010;5.420;2023-03-12T10:37:24;26.73;;;19.33;;
72109;SDS011;59983;52.010;5.420;2023-03-12T10:39:55;27.23;;;18.83;;
72109;SDS011;59983;52.010;5.420;2023-03-12T10:42:23;30.27;;;21.10;;
72109;SDS011;59983;52.010;5.420;2023-03-12T10:45:38;27.77;;;19.73;;
72109;SDS011;59983;52.010;5.420;2023-03-12T10:47:42;23.38;;;17.50;;
72109;SDS011;59983;52.010;5.420;2023-03-12T10:50:20;22.65;;;18.35;;
72109;SDS011;59983;52.010;5.420;2023-03-12T10:52:51;21.43;;;17.70;;
72109;SDS011;59983;52.010;5.420;2023-03-12T10:55:36;27.65;;;17.30;;
72109;SDS011;59983;52.010;5.420;2023-03-12T10:58:03;23.15;;;18.42;;
72109;SDS011;59983;52.010;5.420;2023-03-12T11:00:30;27.50;;;18.55;;
72109;SDS011;59983;52.010;5.420;2023-03-12T11:03:02;29.50;;;17.17;;
72109;SDS011;59983;52.010;5.420;2023-03-12T11:05:32;18.13;;;14.07;;
72109;SDS011;59983;52.010;5.420;2023-03-12T11:08:02;30.05;;;14.95;;
72109;SDS011;59983;52.010;5.420;2023-03-12T11:10:43;28.58;;;15.30;;
72109;SDS011;59983;52.010;5.420;2023-03-12T11:13:22;27.27;;;14.20;;
72109;SDS011;59983;52.010;5.420;2023-03-12T11:15:49;22.77;;;15.07;;
72109;SDS011;59983;52.010;5.420;2023-03-12T11:18:18;22.70;;;14.13;;
72109;SDS011;59983;52.010;5.420;2023-03-12T11:20:54;24.90;;;12.07;;
72109;SDS011;59983;52.010;5.420;2023-03-12T11:23:25;18.98;;;11.57;;
72109;SDS011;59983;52.010;5.420;2023-03-12T11:25:58;22.92;;;12.23;;
72109;SDS011;59983;52.010;5.420;2023-03-12T11:28:28;25.10;;;11.98;;
72109;SDS011;59983;52.010;5.420;2023-03-12T11:31:01;22.43;;;11.33;;
72109;SDS011;59983;52.010;5.420;2023-03-12T11:33:30;28.50;;;12.18;;
72109;SDS011;59983;52.010;5.420;2023-03-12T11:36:01;24.88;;;11.80;;
72109;SDS011;59983;52.010;5.420;2023-03-12T11:38:32;32.70;;;12.27;;
72109;SDS011;59983;52.010;5.420;2023-03-12T11:41:08;16.52;;;10.52;;
72109;SDS011;59983;52.010;5.420;2023-03-12T11:43:58;23.60;;;11.13;;
72109;SDS011;59983;52.010;5.420;2023-03-12T11:46:40;22.48;;;10.02;;
72109;SDS011;59983;52.010;5.420;2023-03-12T11:49:30;20.13;;;9.70;;
72109;SDS011;59983;52.010;5.420;2023-03-12T11:52:11;21.77;;;9.80;;
72109;SDS011;59983;52.010;5.420;2023-03-12T11:55:05;26.80;;;9.35;;
72109;SDS011;59983;52.010;5.420;2023-03-12T12:00:36;30.98;;;11.02;;
72109;SDS011;59983;52.010;5.420;2023-03-12T12:06:11;23.88;;;10.23;;
72109;SDS011;59983;52.010;5.420;2023-03-12T12:08:57;28.40;;;10.60;;
72109;SDS011;59983;52.010;5.420;2023-03-12T12:17:28;25.25;;;10.13;;
72109;SDS011;59983;52.010;5.420;2023-03-12T12:28:14;31.52;;;11.10;;
72109;SDS011;59983;52.010;5.420;2023-03-12T12:36:30;24.17;;;10.25;;
72109;SDS011;59983;52.010;5.420;2023-03-12T12:39:02;23.57;;;10.20;;
72109;SDS011;59983;52.010;5.420;2023-03-12T12:41:36;26.70;;;8.15;;
72109;SDS011;59983;52.010;5.420;2023-03-12T12:44:10;21.45;;;9.48;;
72109;SDS011;59983;52.010;5.420;2023-03-12T12:46:42;28.27;;;8.93;;
72109;SDS011;59983;52.010;5.420;2023-03-12T12:51:57;25.40;;;9.47;;
72109;SDS011;59983;52.010;5.420;2023-03-12T12:57:04;32.67;;;10.32;;
72109;SDS011;59983;52.010;5.420;2023-03-12T12:59:38;25.05;;;8.02;;
72109;SDS011;59983;52.010;5.420;2023-03-12T13:02:12;22.33;;;8.77;;
72109;SDS011;59983;52.010;5.420;2023-03-12T13:04:43;32.60;;;8.33;;
72109;SDS011;59983;52.010;5.420;2023-03-12T13:20:29;23.42;;;7.65;;
72109;SDS011;59983;52.010;5.420;2023-03-12T13:31:36;34.57;;;7.53;;
72109;SDS011;59983;52.010;5.420;2023-03-12T13:36:31;25.00;;;8.10;;
72109;SDS011;59983;52.010;5.420;2023-03-12T13:41:35;26.65;;;9.23;;
72109;SDS011;59983;52.010;5.420;2023-03-12T13:47:27;25.23;;;8.75;;
72109;SDS011;59983;52.010;5.420;2023-03-12T13:52:19;25.90;;;7.53;;
72109;SDS011;59983;52.010;5.420;2023-03-12T13:54:58;26.67;;;8.30;;
72109;SDS011;59983;52.010;5.420;2023-03-12T13:57:44;24.30;;;7.03;;
72109;SDS011;59983;52.010;5.420;2023-03-12T14:00:21;19.05;;;6.30;;
72109;SDS011;59983;52.010;5.420;2023-03-12T14:02:57;29.63;;;7.75;;
72109;SDS011;59983;52.010;5.420;2023-03-12T14:05:28;20.00;;;6.05;;
72109;SDS011;59983;52.010;5.420;2023-03-12T14:16:03;18.67;;;6.65;;
72109;SDS011;59983;52.010;5.420;2023-03-12T14:18:32;22.88;;;5.72;;
72109;SDS011;59983;52.010;5.420;2023-03-12T14:21:02;21.95;;;5.10;;
72109;SDS011;59983;52.010;5.420;2023-03-12T14:23:37;24.07;;;5.13;;
72109;SDS011;59983;52.010;5.420;2023-03-12T14:26:05;22.55;;;5.38;;
72109;SDS011;59983;52.010;5.420;2023-03-12T14:28:37;25.52;;;5.10;;
72109;SDS011;59983;52.010;5.420;2023-03-12T14:31:11;25.35;;;5.88;;
72109;SDS011;59983;52.010;5.420;2023-03-12T14:36:45;20.47;;;5.37;;
72109;SDS011;59983;52.010;5.420;2023-03-12T14:42:06;19.58;;;5.03;;
72109;SDS011;59983;52.010;5.420;2023-03-12T14:44:34;15.18;;;4.57;;
72109;SDS011;59983;52.010;5.420;2023-03-12T14:47:04;17.77;;;5.38;;
72109;SDS011;59983;52.010;5.420;2023-03-12T14:49:37;12.13;;;4.53;;
72109;SDS011;59983;52.010;5.420;2023-03-12T14:52:09;13.50;;;5.10;;
72109;SDS011;59983;52.010;5.420;2023-03-12T14:54:36;18.23;;;4.15;;
72109;SDS011;59983;52.010;5.420;2023-03-12T14:57:05;17.40;;;5.63;;
72109;SDS011;59983;52.010;5.420;2023-03-12T14:59:38;22.33;;;6.20;;
72109;SDS011;59983;52.010;5.420;2023-03-12T15:02:12;18.50;;;5.37;;
72109;SDS011;59983;52.010;5.420;2023-03-12T15:04:40;28.45;;;6.63;;
72109;SDS011;59983;52.010;5.420;2023-03-12T15:07:11;23.85;;;6.13;;
72109;SDS011;59983;52.010;5.420;2023-03-12T15:09:43;17.38;;;5.22;;
72109;SDS011;59983;52.010;5.420;2023-03-12T15:12:18;27.20;;;6.50;;
72109;SDS011;59983;52.010;5.420;2023-03-12T15:14:48;20.00;;;5.53;;
72109;SDS011;59983;52.010;5.420;2023-03-12T15:17:17;24.23;;;7.32;;
72109;SDS011;59983;52.010;5.420;2023-03-12T15:19:46;28.10;;;6.55;;
72109;SDS011;59983;52.010;5.420;2023-03-12T15:22:15;24.23;;;5.28;;
72109;SDS011;59983;52.010;5.420;2023-03-12T15:24:46;27.23;;;7.03;;
72109;SDS011;59983;52.010;5.420;2023-03-12T15:29:55;28.35;;;6.55;;
72109;SDS011;59983;52.010;5.420;2023-03-12T15:32:23;22.00;;;5.95;;
72109;SDS011;59983;52.010;5.420;2023-03-12T15:34:51;23.77;;;5.82;;
72109;SDS011;59983;52.010;5.420;2023-03-12T15:40:04;20.23;;;6.43;;
72109;SDS011;59983;52.010;5.420;2023-03-12T15:42:42;20.50;;;6.00;;
72109;SDS011;59983;52.010;5.420;2023-03-12T15:45:18;22.67;;;8.13;;
72109;SDS011;59983;52.010;5.420;2023-03-12T15:47:48;14.95;;;5.15;;
72109;SDS011;59983;52.010;5.420;2023-03-12T15:53:03;16.53;;;6.80;;
72109;SDS011;59983;52.010;5.420;2023-03-12T15:55:33;26.70;;;6.10;;
72109;SDS011;59983;52.010;5.420;2023-03-12T15:58:00;23.65;;;8.15;;
72109;SDS011;59983;52.010;5.420;2023-03-12T16:00:40;26.05;;;6.93;;
72109;SDS011;59983;52.010;5.420;2023-03-12T16:03:15;24.55;;;6.80;;
72109;SDS011;59983;52.010;5.420;2023-03-12T16:05:43;21.77;;;5.97;;
72109;SDS011;59983;52.010;5.420;2023-03-12T16:08:18;22.85;;;7.35;;
72109;SDS011;59983;52.010;5.420;2023-03-12T16:10:48;23.05;;;7.03;;
72109;SDS011;59983;52.010;5.420;2023-03-12T16:13:17;15.90;;;6.47;;
72109;SDS011;59983;52.010;5.420;2023-03-12T16:15:56;22.73;;;7.82;;
72109;SDS011;59983;52.010;5.420;2023-03-12T16:18:23;26.97;;;6.63;;
72109;SDS011;59983;52.010;5.420;2023-03-12T16:20:50;32.75;;;7.72;;
72109;SDS011;59983;52.010;5.420;2023-03-12T16:23:18;22.88;;;7.75;;
72109;SDS011;59983;52.010;5.420;2023-03-12T16:25:46;23.55;;;7.20;;
72109;SDS011;59983;52.010;5.420;2023-03-12T16:28:16;31.10;;;7.20;;
72109;SDS011;59983;52.010;5.420;2023-03-12T16:30:45;20.90;;;8.63;;
72109;SDS011;59983;52.010;5.420;2023-03-12T16:33:13;44.45;;;8.55;;
72109;SDS011;59983;52.010;5.420;2023-03-12T16:35:41;27.67;;;7.65;;
72109;SDS011;59983;52.010;5.420;2023-03-12T16:38:08;25.40;;;7.22;;
72109;SDS011;59983;52.010;5.420;2023-03-12T16:40:36;27.13;;;7.70;;
72109;SDS011;59983;52.010;5.420;2023-03-12T16:43:06;31.60;;;6.90;;
72109;SDS011;59983;52.010;5.420;2023-03-12T16:45:41;38.33;;;8.07;;